Skip Navigation Links Skip Navigation Links

Current Weather

Waterkloof Lmb, South Africa

For information only: do not use for flight planning or navigation.
Latest weather
Observation time Sunday, August 1, 2021 12:00 PM SAST
Local time Sunday, August 1, 2021 1:05 PM SAST
Flight conditions Conditions unknown
Winds
Wind direction West (260°)
Wind speed 5 mph
Sky condition
Ceiling unlimited
Temperature 70°F
Dewpoint 27°F
Altimeter 30.50 in.Hg
Derived measurements
Relative humidity 20%
Density altitude 1622 ft.
Remarks
Fully automated report.
METAR FAWK 011000Z AUTO 26004KT //// // ////// 21/M03 Q1033

Settings

Location code

InnerDrive.Weather 4.0.6770.0 Release CLR 4.0.30319.42000
Copyright ©2018 Inner Drive Technology. All rights reserved. Portions Copyright ©1986-2018 David Braverman.

Find weather

Site navigation


Skip Navigation Links

Place info

Page info

PayPal - The safer, easier way to pay online!

Return home.

Copyright ©2021 Inner Drive Technology. Purveyors of fine, hand-crafted computer software. Page printed 2021-08-01T11:05:24 UTC.